GW6586 Weather Reports


time (UTC)temp
C
wind
direction
speed
KPH
gust
KPH
rain 1hr
cm
rain 24hr
cm
rain mn
cm
humidity
%
barometer
mb
20260506163013 14 122 8.0 14.5 0.00 0.00 0.00 63 1029.3
20260506161521 15 137 6.4 16.1 0.00 0.00 0.00 62 1029.5
20260506160027 15 126 9.7 17.7 0.00 0.00 0.00 61 1029.5
20260506154519 15 121 9.7 17.7 0.00 0.00 0.00 61 1029.4
20260506151513 16 87 9.7 19.3 0.00 0.00 0.00 59 1029.4
20260506144530 16 48 11.3 19.3 0.00 0.00 0.00 59 1029.5
20260506143016 16 126 11.3 17.7 0.00 0.00 0.00 60 1029.4
20260506141524 16 119 8.0 14.5 0.00 0.00 0.00 60 1029.3
20260506140027 16 145 9.7 16.1 0.00 0.00 0.00 59 1029.3
20260506134520 16 117 9.7 14.5 0.00 0.00 0.00 60 1029.3
20260506133024 16 87 9.7 14.5 0.00 0.00 0.00 60 1029.3
20260506131511 16 137 8.0 19.3 0.00 0.00 0.00 59 1029.2
20260506130020 16 98 9.7 16.1 0.00 0.00 0.00 60 1029.2
20260506124527 16 121 9.7 17.7 0.00 0.00 0.00 60 1029.1
20260506123016 16 117 9.7 16.1 0.00 0.00 0.00 63 1029.0
20260506121524 16 145 6.4 11.3 0.00 0.00 0.00 64 1028.9
20260506120036 16 142 6.4 8.0 0.00 0.00 0.00 63 1028.9
20260506114519 17 148 6.4 11.3 0.00 0.00 0.00 62 1028.8
20260506113026 17 136 6.4 11.3 0.00 0.00 0.00 61 1028.8
20260506111528 17 140 4.8 9.7 0.00 0.00 0.00 61 1028.5
20260506110025 17 134 6.4 11.3 0.00 0.00 0.00 60 1028.3
20260506104525 17 139 6.4 12.9 0.00 0.00 0.00 60 1028.3
20260506103027 18 138 6.4 12.9 0.00 0.00 0.00 59 1028.3
20260506101526 18 137 6.4 12.9 0.00 0.00 0.00 58 1028.2
20260506100013 18 132 8.0 14.5 0.00 0.00 0.00 57 1028.1
20260506093006 18 155 8.0 12.9 0.00 0.00 0.00 57 1027.9
20260506091518 19 156 4.8 11.3 0.00 0.00 0.00 56 1027.7
20260506090020 19 150 6.4 12.9 0.00 0.00 0.00 55 1027.6
20260506084510 20 140 8.0 14.5 0.00 0.00 0.00 55 1027.6
20260506083018 20 135 9.7 16.1 0.00 0.00 0.00 54 1027.6
20260506081505 20 131 9.7 19.3 0.00 0.00 0.00 54 1027.6
20260506071519 21 117 12.9 24.1 0.00 0.00 0.00 52 1027.3
20260506061507 22 131 9.7 22.5 0.00 0.00 0.00 51 1027.4
20260506044522 21 72 9.7 20.9 0.00 0.00 0.00 53 1027.8
20260506041528 21 126 6.4 24.1 0.00 0.00 0.00 54 1028.2
20260506040018 21 50 11.3 24.1 0.00 0.00 0.00 54 1028.4
20260506034526 20 54 12.9 25.7 0.00 0.00 0.00 55 1028.5
20260506033014 20 121 11.3 22.5 0.00 0.00 0.00 56 1028.6
20260506031525 20 90 11.3 22.5 0.00 0.00 0.00 58 1028.7
20260506030026 19 162 12.9 22.5 0.00 0.00 0.00 59 1028.7
20260506024521 18 90 12.9 24.1 0.00 0.00 0.00 61 1028.8
20260506023023 18 98 12.9 20.9 0.00 0.00 0.00 62 1028.9
20260506021526 17 93 16.1 25.7 0.00 0.00 0.00 63 1029.0
20260506020020 17 103 19.3 29.0 0.00 0.00 0.00 65 1028.9
20260506014527 17 104 12.9 24.1 0.00 0.00 0.00 65 1029.0
20260506013013 16 60 17.7 32.2 0.00 0.00 0.00 67 1029.0
20260506011528 16 105 19.3 30.6 0.00 0.00 0.00 68 1029.0
20260506010011 15 111 19.3 29.0 0.00 0.00 0.00 69 1028.8
20260506004519 15 84 19.3 27.4 0.00 0.00 0.00 71 1028.6
20260506003024 15 90 17.7 29.0 0.00 0.00 0.00 72 1028.5
20260506001516 14 146 17.7 27.4 0.00 0.00 0.00 73 1028.4
20260506000022 13 103 12.9 24.1 0.00 0.00 0.00 75 1028.4
20260505234600 13 102 11.3 24.1 0.00 0.00 0.00 77 1028.2
20260505231524 12 108 14.5 24.1 0.00 0.00 0.00 79 1027.7
20260505230014 12 117 12.9 22.5 0.00 0.00 0.00 79 1027.7
20260505224528 12 88 14.5 22.5 0.00 0.00 0.00 77 1027.3
20260505223024 12 117 16.1 29.0 0.00 0.00 0.00 77 1027.1
20260505221518 12 113 17.7 25.7 0.00 0.00 0.00 78 1027.0
20260505220008 12 100 16.1 24.1 0.00 0.00 0.00 78 1027.0
20260505214519 12 109 12.9 22.5 0.00 0.00 0.00 78 1026.9
20260505213023 12 124 14.5 22.5 0.00 0.00 0.00 77 1026.8
20260505211507 12 112 16.1 22.5 0.00 0.00 0.00 77 1026.8
20260505210022 12 107 14.5 22.5 0.00 0.00 0.00 77 1026.7
20260505204503 12 118 11.3 22.5 0.00 0.00 0.00 76 1026.6
20260505201522 13 93 16.1 27.4 0.00 0.00 0.00 74 1026.6
20260505200012 13 125 14.5 25.7 0.00 0.00 0.00 74 1026.7
20260505194516 13 119 14.5 25.7 0.00 0.00 0.00 73 1026.6
20260505193023 13 144 16.1 25.7 0.00 0.00 0.00 73 1026.5
20260505191511 13 132 16.1 22.5 0.00 0.00 0.00 72 1026.6
20260505190017 13 128 12.9 19.3 0.00 0.00 0.00 72 1026.5
20260505184528 13 138 11.3 17.7 0.00 0.00 0.00 71 1026.6
20260505183034 13 107 11.3 19.3 0.00 0.00 0.00 70 1026.7
20260505181525 13 118 11.3 19.3 0.00 0.00 0.00 69 1026.6
20260505180008 14 113 12.9 19.3 0.00 0.00 0.00 68 1026.4
20260505174517 15 117 16.1 29.0 0.00 0.00 0.00 66 1026.3
20260505173023 15 126 17.7 27.4 0.00 0.00 0.00 66 1026.3
20260505171513 15 124 17.7 25.7 0.00 0.00 0.00 66 1026.2
20260505170019 15 142 16.1 32.2 0.00 0.00 0.00 65 1026.1